Flight Track Log - Related Links

Times and Time Zones

All times are in EDT time to prevent confusion due to time zone crossing. See the AZU4312 flight status page for this flight to view local times or setup timezone preferences in your user account.

Time Position Orientation Groundspeed Altitude Reporting Facility
EDT Latitude Longitude Course Direction KTS MPH feet Rate Location/Type
10:17AM -23.0430 -47.2520 252° West 191 220 5,400  Level FlightAware
10:18AM -23.0590 -47.3030 251° West 190 219 6,600 1,200 Climbing FlightAware
10:19AM -23.0700 -47.3390 252° West 189 217 7,300 1,059 Climbing FlightAware
10:19AM -23.0810 -47.3790 253° West 187 215 8,100 1,050 Climbing FlightAware
10:20AM -23.0900 -47.4090 252° West 184 212 8,700 868 Climbing FlightAware
10:21AM -23.1000 -47.4440 253° West 187 215 9,200 825 Climbing FlightAware
10:21AM -23.1100 -47.4820 254° West 188 216 9,800 436 Climbing FlightAware
10:23AM -23.1310 -47.5520 252° West 222 255 10,000 108 Climbing FlightAware
10:23AM -23.1420 -47.5960 255° West 237 273 10,000 977 Level FlightAware
10:24AM -23.1340 -47.6420 281° West 195 224 11,400 1,291 Climbing FlightAware
10:25AM -23.1100 -47.6650 319° Northwest 201 231 11,700 689 Climbing FlightAware
10:25AM -23.0900 -47.6830 320° Northwest 203 234 12,100 646 Climbing FlightAware
10:26AM -23.0660 -47.7040 321° Northwest 208 239 12,400 652 Climbing FlightAware
10:27AM -23.0230 -47.7430 320° Northwest 209 241 13,100 659 Climbing FlightAware
10:27AM -22.9960 -47.7670 321° Northwest 214 246 13,400 525 Climbing FlightAware
10:28AM -22.9610 -47.7990 320° Northwest 215 247 13,800 527 Climbing FlightAware
10:29AM -22.9250 -47.8310 321° Northwest 222 255 14,200 468 Climbing FlightAware
10:29AM -22.9090 -47.8460 319° Northwest 222 255 14,400 391 Climbing FlightAware
10:30AM -22.8580 -47.8910 321° Northwest 222 255 14,800 611 Climbing FlightAware
10:31AM -22.8120 -47.9330 320° Northwest 226 260 15,500 711 Climbing FlightAware
10:31AM -22.7870 -47.9550 321° Northwest 225 259 15,700 488 Climbing FlightAware
10:32AM -22.7430 -47.9950 320° Northwest 225 259 16,200 500 Climbing FlightAware
10:33AM -22.7000 -48.0330 321° Northwest 225 259 16,600 433 Climbing FlightAware
10:34AM -22.6630 -48.0660 321° Northwest 228 262 16,900 414 Climbing FlightAware
10:35AM -22.6290 -48.0960 321° Northwest 227 261 17,200 462 Climbing FlightAware
10:35AM -22.6000 -48.1220 320° Northwest 227 261 17,500 417 Climbing FlightAware
10:36AM -22.5710 -48.1480 320° Northwest 227 261 17,700 395 Climbing FlightAware
10:37AM -22.5380 -48.1770 321° Northwest 227 261 18,000 225 Climbing FlightAware
10:37AM -22.5040 -48.2070 321° Northwest 237 273 18,000  Level FlightAware
10:38AM -22.4700 -48.2380 320° Northwest 246 283 18,000  Level FlightAware
10:39AM -22.4380 -48.2660 321° Northwest 252 290 18,000  Level FlightAware
10:39AM -22.4010 -48.3000 320° Northwest 259 298 18,000  Level FlightAware
10:40AM -22.3670 -48.3300 321° Northwest 261 300 18,000  Level FlightAware
10:41AM -22.3200 -48.3710 321° Northwest 262 302 18,000  Level FlightAware
10:42AM -22.2710 -48.4150 320° Northwest 264 304 18,000  Level FlightAware
10:42AM -22.2310 -48.4500 321° Northwest 264 304 18,000  Level FlightAware
10:43AM -22.1990 -48.4780 321° Northwest 264 304 18,000  Level FlightAware
10:44AM -22.1560 -48.5170 320° Northwest 264 304 18,000  Level FlightAware
10:44AM -22.1150 -48.5530 321° Northwest 263 303 18,000  Level FlightAware
10:45AM -22.0850 -48.5800 320° Northwest 265 305 18,000  Level FlightAware
10:45AM -22.0510 -48.6090 322° Northwest 263 303 18,000  Level FlightAware
10:46AM -22.0210 -48.6360 320° Northwest 262 302 18,000  Level FlightAware
10:47AM -21.9830 -48.6700 320° Northwest 261 300 18,000  Level FlightAware
10:47AM -21.9570 -48.6920 322° Northwest 261 300 18,000  Level FlightAware
10:48AM -21.9130 -48.7310 321° Northwest 261 300 18,000  Level FlightAware
10:48AM -21.8760 -48.7640 320° Northwest 262 302 18,000  Level FlightAware
10:49AM -21.8380 -48.7970 321° Northwest 261 300 18,000  Level FlightAware
10:50AM -21.7930 -48.8370 320° Northwest 261 300 18,000  Level FlightAware
10:51AM -21.7550 -48.8700 321° Northwest 262 302 18,000  Level FlightAware
10:51AM -21.7160 -48.9040 321° Northwest 262 302 18,000  Level FlightAware
10:52AM -21.6820 -48.9340 321° Northwest 263 303 18,000  Level FlightAware
10:53AM -21.6430 -48.9680 321° Northwest 263 303 18,000  Level FlightAware
10:53AM -21.6120 -48.9950 321° Northwest 263 303 18,000  Level FlightAware
10:54AM -21.5700 -49.0320 321° Northwest 263 303 18,000  Level FlightAware
10:55AM -21.5270 -49.0700 321° Northwest 262 302 18,000  Level FlightAware
10:55AM -21.4880 -49.1040 321° Northwest 262 302 18,000  Level FlightAware
10:56AM -21.4440 -49.1420 321° Northwest 262 302 18,000  Level FlightAware
10:57AM -21.4180 -49.1650 321° Northwest 262 302 18,000  Level FlightAware
10:57AM -21.3760 -49.2020 321° Northwest 261 300 18,000  Level FlightAware
10:58AM -21.3320 -49.2400 321° Northwest 260 299 18,000 -643 Level FlightAware
10:59AM -21.2940 -49.2730 321° Northwest 293 337 17,100 -1,807 Descending FlightAware
10:59AM -21.2440 -49.3160 321° Northwest 310 357 15,500 -2,176 Descending FlightAware
11:00AM -21.1930 -49.3610 321° Northwest 304 350 13,800 -2,211 Descending FlightAware
11:01AM -21.1620 -49.3880 321° Northwest 287 330 12,700 -2,108 Descending FlightAware
11:01AM -21.1170 -49.4260 322° Northwest 265 305 11,200 -1,976 Descending FlightAware
11:02AM -21.0820 -49.4570 320° Northwest 253 291 10,000 -1,818 Descending FlightAware
11:03AM -21.0570 -49.4780 322° Northwest 243 280 9,200 -1,500 Descending FlightAware
11:03AM -21.0240 -49.5070 321° Northwest 223 257 8,300 -880 Descending FlightAware
11:04AM -20.9990 -49.5290 321° Northwest 218 251 8,100 -964 Descending FlightAware
11:04AM -20.9820 -49.5320 351° North 212 244 7,400 -1,698 Descending FlightAware
11:05AM -20.9530 -49.5420 342° North 212 244 6,600 -1,352 Descending FlightAware
11:05AM -20.9160 -49.5380 North 191 220 5,800 -1,159 Descending FlightAware
11:06AM -20.8930 -49.5090 50° Northeast 155 178 4,900 -1,299 Descending FlightAware
11:07AM -20.8710 -49.4780 53° Northeast 158 182 3,700 -1,200 Descending FlightAware
11:08AM -20.8510 -49.4520 51° Northeast 118 136 2,900 -938 Descending FlightAware
11:09AM -20.8340 -49.4300 50° Northeast 120 138 2,200 -789 Descending FlightAware
11:09AM -20.8250 -49.4170 53° Northeast 114 131 1,900 -563 Descending FlightAware
11:10AM -20.8130 -49.4020 49° Northeast 111 128 -2,850 Descending FlightAware
11:10AM -20.8120 -49.4010 43° Northeast 111 128  Level FlightAware
11:10AM -20.8120 -49.4020 270° West 111 128  Level FlightAware
11:11AM -20.8130 -49.4030 223° Southwest 111 128  Level FlightAware
11:12AM -20.8130 -49.3900 90° East 111 128  Level FlightAware
11:15AM -20.8166 -49.4065 257° West  Level Estimated
11:16AM -20.8166 -49.4065 343° North  Level Estimated
11:17AM -20.8166 -49.4065 343° North  Level Estimated
11:18AM -20.8166 -49.4065 343° North  Level Estimated
11:19AM -20.8166 -49.4065 343° North  Level Estimated
11:20AM -20.8166 -49.4065 343° North  Level Estimated
11:21AM -20.8166 -49.4065 343° North  Level Estimated
11:22AM -20.8166 -49.4065 343° North  Level Estimated
11:23AM -20.8166 -49.4065 343° North  Level Estimated
11:24AM -20.8166 -49.4065 343° North  Level Estimated
11:25AM -20.8166 -49.4065 343° North  Level Estimated
11:26AM -20.8166 -49.4065 343° North  Level Estimated
11:27AM -20.8166 -49.4065 343° North  Level Estimated
11:28AM -20.8166 -49.4065 343° North  Level Estimated
11:29AM -20.8166 -49.4065 343° North  Level Estimated
11:30AM -20.8166 -49.4065 343° North  Level Estimated
11:31AM -20.8166 -49.4065 343° North  Level Estimated
11:32AM -20.8166 -49.4065 343° North  Level Estimated
11:33AM -20.8166 -49.4065 343° North  Level Estimated
11:34AM -20.8166 -49.4065 343° North  Level Estimated
11:35AM -20.8166 -49.4065 343° North  Level Estimated
11:36AM -20.8166 -49.4065 343° North  Level Estimated
11:37AM -20.8166 -49.4065 343° North  Level Estimated
11:38AM -20.8166 -49.4065 343° North  Level Estimated
11:39AM -20.8166 -49.4065 343° North  Level Estimated

Login

Don't have an account? Register now (free) for customized features, flight alerts, and more!